createdAt,value
2023-07-11T00:02:00.814Z,79.50
2023-07-11T00:12:02.563Z,80.30
2023-07-11T00:22:04.390Z,82.00
2023-07-11T00:32:07.934Z,82.80
2023-07-11T00:42:11.121Z,82.90
2023-07-11T00:52:15.324Z,83.60
2023-07-11T01:02:21.837Z,83.80
2023-07-11T01:12:23.579Z,84.00
2023-07-11T01:22:27.479Z,84.40
2023-07-11T01:32:29.336Z,85.30
2023-07-11T01:42:31.134Z,85.80
2023-07-11T01:52:32.936Z,86.30
2023-07-11T02:02:34.785Z,87.50
2023-07-11T02:12:36.557Z,87.70
2023-07-11T02:22:38.290Z,88.20
2023-07-11T02:32:40.750Z,88.70
2023-07-11T02:42:42.496Z,89.50
2023-07-11T02:52:44.277Z,89.50
2023-07-11T03:02:46.016Z,90.10
2023-07-11T03:12:47.991Z,90.50
2023-07-11T03:22:49.667Z,90.70
2023-07-11T03:32:51.427Z,91.00
2023-07-11T03:42:53.542Z,90.90
2023-07-11T03:52:55.261Z,91.10
2023-07-11T04:02:56.976Z,91.40
2023-07-11T04:12:58.710Z,91.40
2023-07-11T04:23:00.428Z,91.70
2023-07-11T04:33:02.260Z,91.70
2023-07-11T04:43:04.322Z,91.90
2023-07-11T04:53:06.001Z,92.10
2023-07-11T05:03:07.717Z,92.00
2023-07-11T05:13:11.121Z,91.90
2023-07-11T05:23:14.076Z,92.20
2023-07-11T05:33:16.814Z,91.70
2023-07-11T05:43:18.591Z,91.70
2023-07-11T05:53:20.302Z,91.50
2023-07-11T06:03:24.777Z,91.20
2023-07-11T06:13:28.563Z,90.70
2023-07-11T06:23:30.508Z,90.30
2023-07-11T06:33:32.526Z,89.70
2023-07-11T06:43:34.375Z,88.60
2023-07-11T06:53:36.392Z,87.50
2023-07-11T07:03:38.419Z,86.60
2023-07-11T07:13:48.660Z,85.50
2023-07-11T07:23:58.025Z,84.40
2023-07-11T07:33:59.871Z,83.20
2023-07-11T07:44:01.615Z,81.90
2023-07-11T07:54:03.435Z,79.60
2023-07-11T08:04:05.352Z,78.30
2023-07-11T08:14:07.820Z,77.70
2023-07-11T08:24:10.072Z,76.70
2023-07-11T08:34:11.937Z,75.50
2023-07-11T08:44:38.028Z,74.20
2023-07-11T08:55:18.092Z,72.80
2023-07-11T09:05:36.373Z,69.90
2023-07-11T09:15:52.475Z,66.70
2023-07-11T09:26:01.528Z,63.60
2023-07-11T09:36:12.693Z,60.90
2023-07-11T09:46:22.561Z,58.80
2023-07-11T09:56:26.448Z,57.60
2023-07-11T10:16:37.028Z,56.00
2023-07-11T10:26:39.893Z,55.60
2023-07-11T10:36:47.575Z,54.80
2023-07-11T10:46:52.966Z,54.00
2023-07-11T10:57:05.192Z,53.70
2023-07-11T11:07:15.124Z,53.10
2023-07-11T11:17:21.684Z,52.40
2023-07-11T11:27:33.489Z,51.40
2023-07-11T11:37:55.895Z,50.30
2023-07-11T11:58:14.668Z,49.30
2023-07-11T12:08:27.810Z,48.80
2023-07-11T12:18:42.791Z,47.50
2023-07-11T12:28:48.167Z,46.50
2023-07-11T12:39:00.606Z,45.80
2023-07-11T12:49:22.216Z,45.60
2023-07-11T12:59:25.083Z,45.10
2023-07-11T13:09:27.362Z,44.00
2023-07-11T13:19:29.880Z,43.90
2023-07-11T13:29:39.021Z,43.40
2023-07-11T13:39:47.735Z,42.30
2023-07-11T13:50:18.339Z,42.10
2023-07-11T14:00:21.606Z,41.30
2023-07-11T14:10:25.738Z,41.30
2023-07-11T14:20:29.025Z,41.30
2023-07-11T14:30:31.570Z,41.30
2023-07-11T14:40:33.314Z,40.30
2023-07-11T14:50:35.010Z,40.30
2023-07-11T15:00:36.971Z,40.80
2023-07-11T15:10:38.714Z,39.60
2023-07-11T15:20:41.488Z,39.30
2023-07-11T15:30:44.430Z,39.60
2023-07-11T15:40:46.895Z,39.00
2023-07-11T15:50:52.861Z,39.80
2023-07-11T16:00:54.935Z,40.00
2023-07-11T16:11:01.644Z,39.60
2023-07-11T16:21:03.401Z,38.00
2023-07-11T16:31:06.521Z,37.80
2023-07-11T16:41:08.902Z,38.90
2023-07-11T16:51:21.579Z,39.20
2023-07-11T17:01:23.262Z,39.50
2023-07-11T17:11:25.676Z,40.00
2023-07-11T17:21:27.429Z,39.50
2023-07-11T17:31:29.286Z,40.60
2023-07-11T17:41:33.255Z,41.60
2023-07-11T17:51:35.229Z,42.50
2023-07-11T18:01:37.030Z,43.30
2023-07-11T18:11:38.784Z,44.30
2023-07-11T18:21:40.428Z,45.20
2023-07-11T18:31:42.133Z,45.70
2023-07-11T18:41:43.812Z,46.20
2023-07-11T18:51:45.503Z,46.70
2023-07-11T19:01:47.203Z,47.20
2023-07-11T19:11:48.889Z,48.00
2023-07-11T19:21:50.549Z,48.80
2023-07-11T19:31:54.949Z,49.20
2023-07-11T19:41:56.752Z,49.60
2023-07-11T19:51:58.444Z,50.10
2023-07-11T20:02:00.214Z,50.60
2023-07-11T20:12:01.977Z,50.90
2023-07-11T20:22:03.932Z,51.50
2023-07-11T20:32:12.569Z,51.40
2023-07-11T20:42:14.296Z,51.50
2023-07-11T20:52:16.128Z,51.80
2023-07-11T21:02:17.826Z,52.40
2023-07-11T21:12:20.596Z,53.00
2023-07-11T21:22:22.367Z,53.30
2023-07-11T21:32:24.125Z,53.30
2023-07-11T21:42:26.159Z,52.90
2023-07-11T21:52:27.867Z,53.00
2023-07-11T22:02:29.930Z,54.90
2023-07-11T22:12:32.907Z,58.10
2023-07-11T22:22:34.604Z,61.10
2023-07-11T22:32:36.281Z,65.20
2023-07-11T22:42:37.952Z,68.90
2023-07-11T22:52:39.612Z,73.60
2023-07-11T23:02:41.376Z,81.70
2023-07-11T23:12:43.136Z,89.80
2023-07-11T23:22:46.313Z,92.60
2023-07-11T23:32:49.708Z,94.30
2023-07-11T23:42:51.440Z,96.10
2023-07-11T23:52:53.114Z,96.80
